Time;durP1;ratioP1;P1;durP2;ratioP2;P2;SDS_P1;SDS_P2;PMS_P1;PMS_P2;Temp;Humidity;BMP_temperature;BMP_pressure;BME280_temperature;BME280_humidity;BME280_pressure;Samples;Min_cycle;Max_cycle;Signal;HPM_P1;HPM_P2
2022/04/22 00:02:12;;;;;;;;;;;;;;;13.53;37.09;98956.37;4493593;31;32374;-68
2022/04/22 00:04:41;;;;;;;;;;;;;;;13.94;35.99;98957.63;4487801;31;33771;-67
2022/04/22 00:07:09;;;;;;;;;;;;;;;13.85;36.64;98958.53;4498154;31;34085;-70
2022/04/22 00:09:36;;;;;;;;;;;;;;;14.03;36.04;98944.22;4501561;31;34258;-68
2022/04/22 00:12:06;;;;;;;;;;;;;;;14.12;36.03;98952.19;4489053;31;33487;-71
2022/04/22 00:14:34;;;;;;;;;;;;;;;14.05;36.15;98948.44;4492770;31;34189;-69
2022/04/22 00:17:02;;;;;;;;;;;;;;;14.13;36.27;98945.81;4487480;31;34313;-68
2022/04/22 00:19:30;;;;;;;;;;;;;;;14.12;36.09;98943.28;4492418;31;33832;-68
2022/04/22 00:21:58;;;;;;;;;;;;;;;14.10;36.33;98939.91;4473962;31;33496;-68
2022/04/22 00:24:27;;;;;;;;;;;;;;;14.07;36.35;98935.69;4488626;31;33557;-68
2022/04/22 00:26:55;;;;;;;;;;;;;;;14.03;36.84;98931.63;4483833;32;34758;-68
2022/04/22 00:29:23;;;;;;;;;;;;;;;14.08;36.42;98934.66;4493563;31;35729;-69
2022/04/22 00:31:50;;;;;;;;;;;;;;;13.82;37.35;98933.78;4486376;31;33722;-70
2022/04/22 00:34:19;;;;;;;;;;;;;;;14.06;36.86;98934.00;4492423;31;34280;-70
2022/04/22 00:36:47;;;;;;;;;;;;;;;14.23;36.38;98929.56;4489103;31;34072;-69
2022/04/22 00:39:15;;;;;;;;;;;;;;;14.21;36.27;98924.34;4499025;31;34299;-70
2022/04/22 00:41:44;;;;;;;;;;;;;;;14.25;36.57;98910.56;4498222;31;33718;-68
2022/04/22 00:44:12;;;;;;;;;;;;;;;14.24;36.65;98907.03;4489908;31;34856;-69
2022/04/22 00:46:40;;;;;;;;;;;;;;;14.41;35.90;98905.28;4496997;31;35339;-70
2022/04/22 00:49:08;;;;;;;;;;;;;;;14.53;35.88;98904.03;4490077;31;35142;-67
2022/04/22 00:51:37;;;;;;;;;;;;;;;14.51;35.97;98906.06;4498384;31;32616;-68
2022/04/22 00:54:05;;;;;;;;;;;;;;;14.48;36.31;98900.97;4485845;31;33767;-70
2022/04/22 00:56:33;;;;;;;;;;;;;;;14.58;35.89;98896.34;4482557;31;34255;-70
2022/04/22 00:59:01;;;;;;;;;;;;;;;14.57;35.62;98888.41;4483600;31;32769;-68
2022/04/22 01:01:30;;;;;;;;;;;;;;;14.53;35.60;98887.87;4488965;31;34269;-69
2022/04/22 01:09:51;;;;;;;;;;;;;;;14.53;36.43;98879.81;4489122;31;33446;-68
2022/04/22 01:12:19;;;;;;;;;;;;;;;14.37;36.75;98885.06;4478927;31;34768;-68
2022/04/22 01:14:47;;;;;;;;;;;;;;;14.45;37.16;98877.88;4497126;31;35298;-66
2022/04/22 01:17:15;;;;;;;;;;;;;;;14.65;36.73;98867.75;4482674;31;34971;-68
2022/04/22 01:19:43;;;;;;;;;;;;;;;14.53;37.49;98876.28;4490621;31;35855;-67
2022/04/22 01:22:13;;;;;;;;;;;;;;;14.43;37.95;98873.66;4496554;31;34679;-66
2022/04/22 01:24:41;;;;;;;;;;;;;;;14.06;38.26;98864.03;4494085;31;34261;-66
2022/04/22 01:27:10;;;;;;;;;;;;;;;14.29;38.28;98871.59;4487080;31;33522;-70
2022/04/22 01:29:45;;;;;;;;;;;;;;;14.68;37.15;98864.72;4484215;31;34426;-69
2022/04/22 01:32:14;;;;;;;;;;;;;;;14.59;36.94;98862.16;4487262;31;33632;-70
2022/04/22 01:34:43;;;;;;;;;;;;;;;14.68;36.64;98853.13;4489224;31;33390;-67
2022/04/22 01:37:11;;;;;;;;;;;;;;;14.92;35.51;98855.03;4480794;31;32451;-65
2022/04/22 01:39:40;;;;;;;;;;;;;;;14.80;35.72;98853.62;4491887;31;33349;-61
2022/04/22 01:42:09;;;;;;;;;;;;;;;14.83;35.67;98853.31;4483622;31;32104;-61
2022/04/22 01:44:38;;;;;;;;;;;;;;;14.97;36.19;98844.63;4495372;31;32793;-64
2022/04/22 01:47:07;;;;;;;;;;;;;;;14.86;37.24;98837.69;4493301;31;35228;-61
2022/04/22 01:49:36;;;;;;;;;;;;;;;14.96;36.84;98834.84;4497732;31;34253;-63
2022/04/22 01:52:07;;;;;;;;;;;;;;;14.99;36.83;98831.84;4488523;31;34597;-62
2022/04/22 01:54:35;;;;;;;;;;;;;;;15.00;36.76;98821.91;4487656;31;33939;-63
2022/04/22 01:57:06;;;;;;;;;;;;;;;15.02;36.80;98822.56;4491922;31;33317;-62
2022/04/22 01:59:34;;;;;;;;;;;;;;;14.97;36.56;98809.59;4494893;31;33731;-62
2022/04/22 02:02:04;;;;;;;;;;;;;;;14.93;37.12;98810.06;4484801;31;33883;-64
2022/04/22 02:04:33;;;;;;;;;;;;;;;14.93;36.64;98808.25;4493820;31;32890;-69
2022/04/22 02:07:03;;;;;;;;;;;;;;;14.80;36.74;98807.84;4484692;31;35411;-62
2022/04/22 02:09:32;;;;;;;;;;;;;;;14.55;37.42;98799.72;4491367;31;34370;-63
2022/04/22 02:12:02;;;;;;;;;;;;;;;14.54;37.59;98803.44;4488525;31;32383;-64
2022/04/22 02:14:33;;;;;;;;;;;;;;;14.50;37.55;98809.25;4478538;31;33735;-63
2022/04/22 02:17:04;;;;;;;;;;;;;;;14.71;36.86;98809.69;4492598;31;33097;-63
2022/04/22 02:19:34;;;;;;;;;;;;;;;14.70;37.23;98799.91;4483979;31;33076;-65
2022/04/22 02:22:03;;;;;;;;;;;;;;;14.67;36.70;98790.34;4481049;31;34642;-63
2022/04/22 02:24:34;;;;;;;;;;;;;;;14.39;37.57;98795.06;4482680;31;34042;-65
2022/04/22 02:29:50;;;;;;;;;;;;;;;14.26;38.11;98799.22;4496236;31;34704;-64
2022/04/22 02:32:20;;;;;;;;;;;;;;;14.48;37.43;98803.16;4481966;31;34401;-62
2022/04/22 02:34:48;;;;;;;;;;;;;;;14.71;37.47;98798.94;4492946;31;33692;-65
2022/04/22 02:37:17;;;;;;;;;;;;;;;14.87;36.99;98803.50;4468550;32;34404;-65
2022/04/22 02:39:45;;;;;;;;;;;;;;;14.68;37.13;98792.00;4482848;31;35372;-63
2022/04/22 02:47:50;;;;;;;;;;;;;;;14.94;36.73;98780.28;4489824;31;34141;-65
2022/04/22 02:50:20;;;;;;;;;;;;;;;15.00;37.00;98778.78;4490038;31;34237;-63
2022/04/22 02:52:49;;;;;;;;;;;;;;;14.97;37.44;98782.66;4489588;31;32450;-64
2022/04/22 02:55:17;;;;;;;;;;;;;;;14.74;37.67;98774.34;4485035;31;34303;-65
2022/04/22 02:57:47;;;;;;;;;;;;;;;14.92;37.43;98779.59;4482546;32;34134;-66
2022/04/22 03:00:19;;;;;;;;;;;;;;;14.86;36.92;98775.72;4484064;31;33269;-64
2022/04/22 03:02:56;;;;;;;;;;;;;;;14.62;36.95;98760.34;4482176;32;32198;-65
2022/04/22 03:05:25;;;;;;;;;;;;;;;14.49;37.23;98767.19;4493407;31;34235;-64
2022/04/22 03:07:54;;;;;;;;;;;;;;;14.85;36.52;98762.41;4486257;31;34644;-65
2022/04/22 03:10:22;;;;;;;;;;;;;;;14.68;36.69;98764.25;4491675;31;34357;-63
2022/04/22 03:12:50;;;;;;;;;;;;;;;14.89;36.14;98766.44;4487387;31;33667;-63
2022/04/22 03:15:19;;;;;;;;;;;;;;;14.41;36.62;98760.78;4488611;31;33972;-64
2022/04/22 03:17:49;;;;;;;;;;;;;;;14.48;36.86;98755.56;4497042;31;32822;-64
2022/04/22 03:20:17;;;;;;;;;;;;;;;14.27;37.33;98749.78;4490306;31;35491;-67
2022/04/22 03:22:46;;;;;;;;;;;;;;;14.29;36.86;98747.78;4495349;31;32548;-68
2022/04/22 03:25:14;;;;;;;;;;;;;;;14.04;37.25;98744.97;4485556;31;35303;-63
2022/04/22 03:27:42;;;;;;;;;;;;;;;13.04;38.97;98748.97;4490673;31;34398;-64
2022/04/22 03:30:11;;;;;;;;;;;;;;;13.36;38.52;98743.06;4489562;31;34288;-63
2022/04/22 03:32:39;;;;;;;;;;;;;;;13.56;38.66;98751.75;4482024;32;32907;-63
2022/04/22 03:35:07;;;;;;;;;;;;;;;13.74;37.78;98733.72;4491434;31;34340;-63
2022/04/22 03:37:36;;;;;;;;;;;;;;;14.33;37.31;98733.81;4488724;31;34245;-62
2022/04/22 03:40:05;;;;;;;;;;;;;;;14.74;36.67;98736.66;4482627;31;36010;-62
2022/04/22 03:42:34;;;;;;;;;;;;;;;14.29;37.40;98739.69;4492489;31;35266;-64
2022/04/22 03:45:03;;;;;;;;;;;;;;;14.29;37.19;98745.09;4482080;31;35303;-62
2022/04/22 03:47:35;;;;;;;;;;;;;;;14.50;36.62;98733.84;4488785;31;33219;-61
2022/04/22 03:50:11;;;;;;;;;;;;;;;14.57;36.51;98732.22;4479807;31;34005;-64
2022/04/22 03:52:39;;;;;;;;;;;;;;;13.12;38.89;98730.22;4482927;31;34030;-64
2022/04/22 03:55:07;;;;;;;;;;;;;;;13.14;39.57;98733.63;4484097;31;33871;-64
2022/04/22 04:00:23;;;;;;;;;;;;;;;14.42;36.88;98735.53;4481099;32;35115;-66
2022/04/22 04:02:51;;;;;;;;;;;;;;;14.63;36.24;98734.25;4482600;31;33538;-62
2022/04/22 04:05:20;;;;;;;;;;;;;;;14.33;36.88;98732.97;4481979;31;34957;-64
2022/04/22 04:07:48;;;;;;;;;;;;;;;14.20;37.64;98739.66;4483415;31;33122;-66
2022/04/22 04:16:00;;;;;;;;;;;;;;;13.40;39.10;98724.78;4496623;31;34333;-64
2022/04/22 04:18:31;;;;;;;;;;;;;;;14.15;37.19;98725.00;4490983;31;34168;-61
2022/04/22 04:23:48;;;;;;;;;;;;;;;14.29;37.02;98732.47;4484050;31;33080;-64
2022/04/22 04:26:17;;;;;;;;;;;;;;;13.80;37.79;98731.38;4483604;32;34240;-66
2022/04/22 04:28:47;;;;;;;;;;;;;;;14.34;37.13;98731.97;4490665;31;33258;-63
2022/04/22 04:31:15;;;;;;;;;;;;;;;13.94;37.79;98728.94;4487656;31;33156;-62
2022/04/22 04:33:44;;;;;;;;;;;;;;;13.90;37.61;98735.66;4487830;31;33498;-62
2022/04/22 04:36:17;;;;;;;;;;;;;;;13.85;38.93;98737.13;4484421;31;35004;-62
2022/04/22 04:38:47;;;;;;;;;;;;;;;14.32;37.12;98739.38;4477938;31;33227;-63
2022/04/22 04:41:17;;;;;;;;;;;;;;;13.72;38.43;98730.34;4499356;31;34303;-61
2022/04/22 04:43:47;;;;;;;;;;;;;;;13.78;38.63;98736.09;4482475;31;32339;-64
2022/04/22 04:46:17;;;;;;;;;;;;;;;12.85;39.86;98741.09;4497901;31;34110;-63
2022/04/22 04:48:46;;;;;;;;;;;;;;;13.88;38.23;98731.44;4489922;31;33168;-64
2022/04/22 04:51:16;;;;;;;;;;;;;;;13.40;38.89;98733.66;4492505;31;35242;-64
2022/04/22 04:53:45;;;;;;;;;;;;;;;13.67;38.80;98747.94;4498130;31;33327;-63
2022/04/22 04:56:14;;;;;;;;;;;;;;;13.02;40.06;98754.50;4482954;31;36396;-62
2022/04/22 04:58:45;;;;;;;;;;;;;;;13.46;39.28;98737.59;4485702;31;33217;-66
2022/04/22 05:01:13;;;;;;;;;;;;;;;13.53;39.11;98738.63;4489556;31;33167;-65
2022/04/22 05:03:42;;;;;;;;;;;;;;;13.52;39.53;98740.47;4490024;31;32260;-65
2022/04/22 05:06:12;;;;;;;;;;;;;;;13.45;39.97;98743.94;4485532;31;34157;-65
2022/04/22 05:08:42;;;;;;;;;;;;;;;13.33;40.01;98743.37;4484422;31;33762;-69
2022/04/22 05:11:12;;;;;;;;;;;;;;;12.65;41.57;98756.47;4488174;31;35273;-66
2022/04/22 05:13:41;;;;;;;;;;;;;;;12.73;41.60;98759.25;4492170;31;33612;-66
2022/04/22 05:16:10;;;;;;;;;;;;;;;12.95;41.04;98757.97;4489641;31;33079;-66
2022/04/22 05:18:40;;;;;;;;;;;;;;;12.73;41.07;98754.72;4488520;31;33306;-66
2022/04/22 05:21:13;;;;;;;;;;;;;;;12.93;40.71;98759.94;4488768;31;33430;-66
2022/04/22 05:23:49;;;;;;;;;;;;;;;12.67;40.72;98759.84;4494995;31;32635;-66
2022/04/22 05:26:18;;;;;;;;;;;;;;;12.16;41.51;98766.66;4498407;31;34665;-65
2022/04/22 05:28:46;;;;;;;;;;;;;;;12.76;40.64;98762.47;4481143;31;32578;-65
2022/04/22 05:34:02;;;;;;;;;;;;;;;12.64;41.65;98754.78;4491179;31;33517;-68
2022/04/22 05:36:31;;;;;;;;;;;;;;;12.83;40.56;98760.84;4489384;31;33031;-64
2022/04/22 05:38:59;;;;;;;;;;;;;;;12.85;40.76;98762.56;4490944;31;35135;-69
2022/04/22 05:41:28;;;;;;;;;;;;;;;12.83;40.33;98758.16;4493122;31;33486;-69
2022/04/22 05:43:56;;;;;;;;;;;;;;;12.61;40.65;98755.94;4492046;31;33627;-68
2022/04/22 05:46:24;;;;;;;;;;;;;;;12.66;41.27;98748.28;4483274;31;34072;-64
2022/04/22 05:48:54;;;;;;;;;;;;;;;12.30;41.83;98752.75;4485097;31;34315;-66
2022/04/22 05:51:24;;;;;;;;;;;;;;;12.87;40.84;98741.75;4496286;31;34350;-68
2022/04/22 05:53:52;;;;;;;;;;;;;;;12.89;40.73;98745.13;4483278;31;33509;-66
2022/04/22 05:56:21;;;;;;;;;;;;;;;13.00;40.22;98739.53;4486833;31;35355;-66
2022/04/22 05:58:50;;;;;;;;;;;;;;;12.97;40.44;98743.37;4496406;31;34157;-66
2022/04/22 06:01:18;;;;;;;;;;;;;;;13.01;39.53;98742.06;4492113;31;35742;-66
2022/04/22 06:03:47;;;;;;;;;;;;;;;12.48;40.79;98740.19;4493132;31;32483;-68
2022/04/22 06:06:16;;;;;;;;;;;;;;;12.93;40.02;98746.50;4491254;31;33166;-68
2022/04/22 06:11:42;;;;;;;;;;;;;;;11.82;41.78;98738.53;4486983;31;34479;-66
2022/04/22 06:14:12;;;;;;;;;;;;;;;12.69;39.97;98729.19;4486300;31;33384;-66
2022/04/22 06:16:41;;;;;;;;;;;;;;;13.07;40.30;98727.19;4483407;31;33263;-67
2022/04/22 06:19:10;;;;;;;;;;;;;;;12.11;40.80;98734.91;4491206;31;33143;-66
2022/04/22 06:21:38;;;;;;;;;;;;;;;12.78;40.85;98724.75;4474003;31;34666;-66
2022/04/22 06:24:06;;;;;;;;;;;;;;;12.81;39.96;98719.06;4486907;31;32394;-67
2022/04/22 06:26:34;;;;;;;;;;;;;;;12.27;41.49;98720.84;4494875;31;34962;-65
2022/04/22 06:29:03;;;;;;;;;;;;;;;12.35;40.73;98724.44;4496029;31;33348;-66
2022/04/22 06:31:31;;;;;;;;;;;;;;;12.32;41.21;98722.06;4486520;31;34401;-73
2022/04/22 06:34:00;;;;;;;;;;;;;;;12.74;40.74;98726.03;4483591;31;34296;-68
2022/04/22 06:36:29;;;;;;;;;;;;;;;12.81;39.99;98730.66;4483394;31;34066;-70
2022/04/22 06:38:58;;;;;;;;;;;;;;;12.72;40.55;98728.03;4485460;31;34437;-68
2022/04/22 06:47:04;;;;;;;;;;;;;;;12.83;40.89;98717.06;4492966;31;33120;-69
2022/04/22 06:49:33;;;;;;;;;;;;;;;13.05;40.55;98710.38;4494180;31;35022;-67
2022/04/22 06:52:01;;;;;;;;;;;;;;;13.41;38.83;98711.16;4497780;31;33673;-68
2022/04/22 06:54:31;;;;;;;;;;;;;;;13.22;39.01;98716.69;4493097;31;32986;-69
2022/04/22 06:57:06;;;;;;;;;;;;;;;12.42;40.83;98723.84;4497665;31;33019;-69
2022/04/22 06:59:39;;;;;;;;;;;;;;;12.72;40.44;98715.47;4487438;31;35479;-66
2022/04/22 07:02:09;;;;;;;;;;;;;;;13.37;38.62;98706.25;4480558;31;33079;-65
2022/04/22 07:04:38;;;;;;;;;;;;;;;12.91;40.08;98714.47;4479342;31;34061;-66
2022/04/22 07:07:10;;;;;;;;;;;;;;;12.69;39.92;98707.72;4482435;31;34521;-63
2022/04/22 07:09:40;;;;;;;;;;;;;;;12.82;40.42;98715.38;4489890;31;34268;-67
2022/04/22 07:12:09;;;;;;;;;;;;;;;12.82;40.43;98718.06;4495692;31;34293;-67
2022/04/22 07:14:38;;;;;;;;;;;;;;;13.18;40.35;98715.34;4484047;31;32590;-68
2022/04/22 07:17:09;;;;;;;;;;;;;;;13.22;39.81;98714.00;4475819;31;32901;-70
2022/04/22 07:19:37;;;;;;;;;;;;;;;13.40;39.41;98717.53;4470354;31;36071;-68
2022/04/22 07:22:06;;;;;;;;;;;;;;;13.26;39.84;98721.66;4490978;31;35311;-68
2022/04/22 07:24:35;;;;;;;;;;;;;;;12.84;40.14;98724.12;4475072;31;33148;-68
2022/04/22 07:27:06;;;;;;;;;;;;;;;13.03;41.61;98717.72;4489874;31;34380;-66
2022/04/22 07:29:35;;;;;;;;;;;;;;;13.30;40.56;98724.03;4496258;31;33093;-69
2022/04/22 07:32:05;;;;;;;;;;;;;;;13.00;42.55;98724.28;4470682;31;33214;-67
2022/04/22 07:34:35;;;;;;;;;;;;;;;12.97;43.10;98712.97;4476927;31;34420;-68
2022/04/22 07:37:07;;;;;;;;;;;;;;;12.68;43.75;98713.22;4495381;31;32799;-66
2022/04/22 07:39:39;;;;;;;;;;;;;;;12.28;45.88;98722.53;4485470;31;33268;-69
2022/04/22 07:42:08;;;;;;;;;;;;;;;12.27;46.54;98708.28;4489129;31;35680;-68
2022/04/22 07:47:27;;;;;;;;;;;;;;;12.97;44.38;98707.59;4465822;31;33628;-65
2022/04/22 07:49:56;;;;;;;;;;;;;;;12.52;46.65;98706.72;4481682;31;35658;-66
2022/04/22 07:52:25;;;;;;;;;;;;;;;12.56;47.05;98697.34;4492507;31;34548;-67
2022/04/22 07:54:54;;;;;;;;;;;;;;;12.94;47.08;98695.34;4494854;31;32667;-67
2022/04/22 07:57:23;;;;;;;;;;;;;;;12.80;47.70;98701.25;4477972;31;33924;-67
2022/04/22 07:59:52;;;;;;;;;;;;;;;12.97;47.05;98699.53;4490908;31;34313;-67
2022/04/22 08:02:20;;;;;;;;;;;;;;;12.91;47.11;98697.50;4488585;31;32966;-68
2022/04/22 08:04:48;;;;;;;;;;;;;;;12.11;49.25;98705.41;4496794;31;33689;-67
2022/04/22 08:07:18;;;;;;;;;;;;;;;12.37;49.45;98700.16;4495096;31;34289;-65
2022/04/22 08:09:52;;;;;;;;;;;;;;;12.66;48.74;98704.47;4489928;31;34457;-66
2022/04/22 08:12:21;;;;;;;;;;;;;;;12.55;48.37;98705.53;4482559;31;34832;-65
2022/04/22 08:14:58;;;;;;;;;;;;;;;12.87;48.63;98696.09;4486208;31;33392;-67
2022/04/22 08:17:27;;;;;;;;;;;;;;;12.96;48.86;98703.22;4490478;31;35291;-66
2022/04/22 08:19:56;;;;;;;;;;;;;;;12.63;49.70;98707.47;4493635;31;34284;-68
2022/04/22 08:22:25;;;;;;;;;;;;;;;12.24;51.36;98703.22;4497355;31;35201;-63
2022/04/22 08:24:53;;;;;;;;;;;;;;;12.80;51.14;98698.56;4483691;32;34985;-64
2022/04/22 08:27:22;;;;;;;;;;;;;;;12.76;50.94;98697.19;4487488;31;34873;-65
2022/04/22 08:29:49;;;;;;;;;;;;;;;12.04;53.03;98689.09;4470532;31;33894;-64
2022/04/22 08:32:18;;;;;;;;;;;;;;;11.95;54.62;98689.97;4482710;31;33159;-65
2022/04/22 08:34:46;;;;;;;;;;;;;;;12.37;53.61;98696.66;4475448;31;32167;-64
2022/04/22 08:37:15;;;;;;;;;;;;;;;12.38;54.10;98691.13;4490651;31;33946;-62
2022/04/22 08:39:42;;;;;;;;;;;;;;;11.77;56.41;98684.50;4496629;31;34860;-63
2022/04/22 08:42:12;;;;;;;;;;;;;;;11.46;58.33;98692.00;4487916;31;35911;-63
2022/04/22 08:45:00;;;;;;;;;;;;;;;11.50;58.13;98689.84;4486466;31;34325;-65
2022/04/22 08:50:19;;;;;;;;;;;;;;;11.71;58.17;98677.06;4472385;31;34116;-65
2022/04/22 08:52:49;;;;;;;;;;;;;;;11.20;59.78;98673.00;4481794;31;33469;-65
2022/04/22 08:55:18;;;;;;;;;;;;;;;11.37;60.81;98671.44;4487301;31;32455;-65
2022/04/22 08:57:47;;;;;;;;;;;;;;;11.78;60.09;98662.09;4470646;31;32328;-66
2022/04/22 09:00:23;;;;;;;;;;;;;;;12.25;59.02;98670.03;4488274;31;33141;-64
2022/04/22 09:02:54;;;;;;;;;;;;;;;12.03;60.18;98659.72;4486422;31;34259;-64
2022/04/22 09:05:22;;;;;;;;;;;;;;;12.09;60.65;98659.13;4488954;31;32658;-64
2022/04/22 09:07:51;;;;;;;;;;;;;;;11.23;64.53;98653.13;4481806;31;34215;-64
2022/04/22 09:10:20;;;;;;;;;;;;;;;11.61;64.16;98639.56;4477512;31;34229;-65
2022/04/22 09:12:50;;;;;;;;;;;;;;;11.93;63.92;98626.75;4491133;31;33163;-64
2022/04/22 09:15:21;;;;;;;;;;;;;;;11.81;64.64;98634.13;4483587;31;33750;-66
2022/04/22 09:17:57;;;;;;;;;;;;;;;11.77;65.08;98627.38;4482698;31;33263;-65
2022/04/22 09:20:30;;;;;;;;;;;;;;;11.84;65.60;98625.78;4492524;31;33211;-65
2022/04/22 09:22:59;;;;;;;;;;;;;;;11.28;67.14;98621.41;4492555;31;33362;-64
2022/04/22 09:25:28;;;;;;;;;;;;;;;10.71;69.65;98626.72;4475908;32;33454;-64
2022/04/22 09:28:06;;;;;;;;;;;;;;;10.63;70.10;98622.13;4483984;31;33880;-62
2022/04/22 09:30:36;;;;;;;;;;;;;;;10.53;70.06;98605.22;4488873;31;34351;-62
2022/04/22 09:33:07;;;;;;;;;;;;;;;10.03;71.78;98603.47;4481645;31;34405;-64
2022/04/22 09:42:38;;;;;;;;;;;;;;;10.34;71.65;98614.09;4475169;31;32553;-63
2022/04/22 09:43:56;;;;;;;;;;;;;;;11.11;68.88;98589.03;4484946;31;33243;-62
2022/04/22 09:46:30;;;;;;;;;;;;;;;11.08;69.20;98583.13;4468866;31;33329;-63
2022/04/22 09:48:59;;;;;;;;;;;;;;;11.39;68.95;98583.69;4485685;31;32711;-63
2022/04/22 09:51:30;;;;;;;;;;;;;;;11.51;67.84;98587.03;4486588;31;34035;-63
2022/04/22 09:54:03;;;;;;;;;;;;;;;11.54;68.09;98579.53;4465437;31;34496;-63
2022/04/22 09:56:33;;;;;;;;;;;;;;;11.22;69.58;98582.66;4489151;31;35507;-65
2022/04/22 09:59:24;;;;;;;;;;;;;;;11.42;68.07;98584.22;4484935;31;33618;-65
2022/04/22 10:01:54;;;;;;;;;;;;;;;11.22;69.18;98590.69;4497703;31;33808;-64
2022/04/22 10:04:35;;;;;;;;;;;;;;;11.34;69.25;98591.34;4485883;31;33314;-65
2022/04/22 10:07:03;;;;;;;;;;;;;;;11.00;69.41;98599.06;4471309;31;32660;-61
2022/04/22 10:09:31;;;;;;;;;;;;;;;11.13;69.37;98591.56;4478577;31;33772;-65
2022/04/22 10:12:01;;;;;;;;;;;;;;;11.22;69.16;98581.81;4489552;31;36985;-63
2022/04/22 10:14:35;;;;;;;;;;;;;;;11.31;68.87;98583.59;4482479;31;34465;-63
2022/04/22 10:17:07;;;;;;;;;;;;;;;11.05;69.77;98576.22;4484170;31;33405;-65
2022/04/22 10:19:34;;;;;;;;;;;;;;;11.09;68.74;98574.09;4484882;31;33097;-65
2022/04/22 10:22:07;;;;;;;;;;;;;;;10.61;69.70;98578.59;4483874;31;33990;-62
2022/04/22 10:24:41;;;;;;;;;;;;;;;10.60;70.90;98571.56;4490119;31;34513;-64
2022/04/22 10:27:13;;;;;;;;;;;;;;;11.16;68.36;98567.16;4468532;31;33681;-65
2022/04/22 10:29:44;;;;;;;;;;;;;;;11.06;68.58;98559.16;4479150;31;34103;-64
2022/04/22 10:32:20;;;;;;;;;;;;;;;10.85;68.91;98571.91;4482221;31;35213;-64
2022/04/22 10:34:57;;;;;;;;;;;;;;;10.76;69.03;98570.97;4489937;31;34420;-64
2022/04/22 10:37:33;;;;;;;;;;;;;;;10.92;67.99;98563.16;4482400;31;32513;-64
2022/04/22 10:40:02;;;;;;;;;;;;;;;10.85;68.57;98562.06;4485381;31;32773;-66
2022/04/22 10:42:34;;;;;;;;;;;;;;;10.73;68.32;98564.06;4464820;31;33111;-63
2022/04/22 10:48:00;;;;;;;;;;;;;;;10.41;69.85;98559.03;4484503;31;33290;-64
2022/04/22 10:50:31;;;;;;;;;;;;;;;10.68;69.68;98542.22;4481220;31;34215;-65
2022/04/22 10:53:05;;;;;;;;;;;;;;;10.79;69.54;98529.69;4481934;31;34284;-67
2022/04/22 10:55:36;;;;;;;;;;;;;;;10.87;69.31;98535.97;4487393;31;34132;-67
2022/04/22 10:58:24;;;;;;;;;;;;;;;10.84;70.03;98551.50;4484526;31;34490;-67
2022/04/22 11:00:54;;;;;;;;;;;;;;;10.61;70.32;98545.63;4483090;31;34222;-65
2022/04/22 11:03:23;;;;;;;;;;;;;;;10.72;70.59;98543.66;4481436;31;33668;-66
2022/04/22 11:05:50;;;;;;;;;;;;;;;11.06;68.72;98543.09;4481253;31;34431;-66
2022/04/22 11:08:29;;;;;;;;;;;;;;;11.10;68.68;98535.59;4474605;31;32306;-66
2022/04/22 11:10:57;;;;;;;;;;;;;;;11.29;68.57;98538.19;4466587;32;33792;-69
2022/04/22 11:13:25;;;;;;;;;;;;;;;11.32;68.42;98526.34;4479867;31;33509;-69
2022/04/22 11:16:00;;;;;;;;;;;;;;;10.74;70.51;98527.44;4488595;31;33517;-67
2022/04/22 11:18:28;;;;;;;;;;;;;;;11.03;69.55;98527.31;4465306;31;33573;-69
2022/04/22 11:21:03;;;;;;;;;;;;;;;11.16;68.68;98525.16;4466556;31;33020;-66
2022/04/22 11:23:44;;;;;;;;;;;;;;;11.09;68.17;98521.38;4480492;31;33636;-68
2022/04/22 11:26:13;;;;;;;;;;;;;;;11.42;67.00;98517.25;4487045;31;34317;-67
2022/04/22 11:28:42;;;;;;;;;;;;;;;11.47;66.79;98513.31;4468759;31;32896;-67
2022/04/22 11:31:10;;;;;;;;;;;;;;;11.60;66.07;98511.94;4486777;31;35722;-67
2022/04/22 11:33:47;;;;;;;;;;;;;;;11.72;64.04;98512.56;4468666;31;34005;-65
2022/04/22 11:36:16;;;;;;;;;;;;;;;12.06;62.55;98506.53;4481761;31;33522;-69
2022/04/22 11:38:44;;;;;;;;;;;;;;;11.98;61.80;98506.50;4492156;31;34055;-70
2022/04/22 11:41:13;;;;;;;;;;;;;;;12.14;60.98;98520.03;4482712;31;33195;-65
2022/04/22 11:43:41;;;;;;;;;;;;;;;12.18;59.84;98507.16;4483450;31;33159;-66
2022/04/22 11:46:12;;;;;;;;;;;;;;;12.41;58.82;98497.59;4489586;31;33380;-67
2022/04/22 11:48:48;;;;;;;;;;;;;;;11.99;60.67;98506.31;4466653;31;33568;-66
2022/04/22 11:51:20;;;;;;;;;;;;;;;12.41;58.81;98508.34;4484718;31;34002;-68
2022/04/22 11:53:52;;;;;;;;;;;;;;;12.60;57.80;98493.88;4483958;31;35849;-66
2022/04/22 11:56:23;;;;;;;;;;;;;;;13.07;56.66;98488.09;4493173;31;35403;-65
2022/04/22 11:58:55;;;;;;;;;;;;;;;13.18;56.51;98486.97;4483126;31;33470;-66
2022/04/22 12:06:58;;;;;;;;;;;;;;;13.43;53.63;98479.88;4478275;31;35857;-67
2022/04/22 12:09:26;;;;;;;;;;;;;;;13.16;53.58;98467.47;4488859;31;33666;-67
2022/04/22 12:11:56;;;;;;;;;;;;;;;13.37;52.99;98472.44;4457336;32;34097;-67
2022/04/22 12:14:24;;;;;;;;;;;;;;;12.87;53.93;98457.94;4484641;31;35707;-66
2022/04/22 12:16:53;;;;;;;;;;;;;;;13.21;53.15;98462.47;4485434;31;33328;-65
2022/04/22 12:19:21;;;;;;;;;;;;;;;13.90;51.65;98447.00;4484727;31;33848;-66
2022/04/22 12:21:49;;;;;;;;;;;;;;;13.76;49.78;98443.12;4487114;31;33002;-67
2022/04/22 12:24:17;;;;;;;;;;;;;;;13.64;50.81;98429.19;4466543;31;34273;-68
2022/04/22 12:26:45;;;;;;;;;;;;;;;14.02;48.37;98431.37;4482539;32;34532;-68
2022/04/22 12:29:13;;;;;;;;;;;;;;;13.49;48.10;98436.22;4483489;31;33558;-67
2022/04/22 12:31:53;;;;;;;;;;;;;;;13.63;47.55;98423.94;4469748;31;33029;-67
2022/04/22 12:34:26;;;;;;;;;;;;;;;13.63;47.45;98434.72;4481877;31;34273;-68
2022/04/22 12:36:55;;;;;;;;;;;;;;;13.18;47.68;98443.97;4488654;31;35181;-67
2022/04/22 12:39:31;;;;;;;;;;;;;;;13.51;47.20;98429.66;4492181;31;32244;-69
2022/04/22 12:42:00;;;;;;;;;;;;;;;13.56;46.76;98434.53;4468386;31;32485;-68
2022/04/22 12:44:27;;;;;;;;;;;;;;;13.48;46.33;98440.75;4470731;32;33892;-68
2022/04/22 12:52:45;;;;;;;;;;;;;;;13.23;45.47;98412.09;4482239;31;34447;-69
2022/04/22 12:55:16;;;;;;;;;;;;;;;13.03;45.53;98419.56;4483148;31;34135;-67
2022/04/22 12:57:43;;;;;;;;;;;;;;;13.49;44.27;98406.63;4484179;31;33296;-69
2022/04/22 13:00:16;;;;;;;;;;;;;;;13.36;44.99;98419.72;4470660;31;32660;-71
2022/04/22 13:03:03;;;;;;;;;;;;;;;13.28;44.93;98428.59;4484301;31;33806;-69
2022/04/22 13:05:32;;;;;;;;;;;;;;;13.53;44.45;98418.72;4482241;31;34350;-70
2022/04/22 13:08:07;;;;;;;;;;;;;;;13.88;43.44;98411.38;4486535;31;34096;-69
2022/04/22 13:10:36;;;;;;;;;;;;;;;13.45;44.40;98421.41;4481155;31;31987;-69
2022/04/22 13:13:10;;;;;;;;;;;;;;;13.68;44.37;98403.62;4488669;31;34347;-70
2022/04/22 13:15:37;;;;;;;;;;;;;;;13.36;44.28;98406.28;4485271;31;33660;-69
2022/04/22 13:18:05;;;;;;;;;;;;;;;13.51;44.29;98401.91;4485453;31;33240;-69
2022/04/22 13:20:33;;;;;;;;;;;;;;;13.81;43.92;98394.22;4486456;31;33631;-69
2022/04/22 13:23:01;;;;;;;;;;;;;;;13.67;43.57;98398.41;4492474;31;32631;-68
2022/04/22 13:25:29;;;;;;;;;;;;;;;13.85;43.62;98395.56;4483450;31;34616;-68
2022/04/22 13:27:56;;;;;;;;;;;;;;;13.94;43.24;98402.63;4480385;31;33109;-70
2022/04/22 13:30:25;;;;;;;;;;;;;;;13.93;42.34;98395.56;4486378;31;32680;-70
2022/04/22 13:32:53;;;;;;;;;;;;;;;13.80;42.53;98400.59;4485135;31;33816;-70
2022/04/22 13:35:20;;;;;;;;;;;;;;;13.47;43.07;98401.41;4486604;31;34463;-70
2022/04/22 13:37:49;;;;;;;;;;;;;;;13.46;43.88;98399.75;4473493;31;32790;-70
2022/04/22 13:40:17;;;;;;;;;;;;;;;13.73;42.93;98387.81;4485133;31;32350;-68
2022/04/22 13:42:46;;;;;;;;;;;;;;;13.92;42.84;98391.19;4483823;31;34198;-69
2022/04/22 13:53:33;;;;;;;;;;;;;;;13.81;41.87;98391.53;4471564;31;33293;-69
2022/04/22 13:56:01;;;;;;;;;;;;;;;13.89;42.13;98384.28;4483751;31;31395;-69
2022/04/22 13:58:32;;;;;;;;;;;;;;;13.57;42.39;98392.34;4470355;31;33478;-70
2022/04/22 14:01:02;;;;;;;;;;;;;;;13.61;43.53;98385.63;4484537;31;32469;-69
2022/04/22 14:03:30;;;;;;;;;;;;;;;13.85;42.57;98384.81;4469912;31;32958;-70
2022/04/22 14:05:58;;;;;;;;;;;;;;;13.88;42.82;98373.72;4483595;31;33093;-69
2022/04/22 14:08:26;;;;;;;;;;;;;;;13.90;42.59;98377.06;4490746;31;33054;-73
2022/04/22 14:10:55;;;;;;;;;;;;;;;13.92;42.41;98365.13;4475352;31;32342;-73
2022/04/22 14:13:22;;;;;;;;;;;;;;;13.86;42.65;98363.13;4486795;31;33057;-72